Bloomingdale, New York
Current Conditions -  °F | °C
As of 11:51 AM on Thursday 27 Nov 2014 (Local Time) from KSLK Reporting Station
Overcast Overcast  
Wind Chill: 24°   Ceiling: 1200
Heat Index: 24°   Visibility: 10mi
Dew Point: 19°   Wind: 3mph
Humidity: 81%   Direction: 330°NNW
Pressure: 29.92"   Gusts: NA
Location:  44.41°N, 74.09°W
Report Text: KSLK 271651Z AUTO 33003KT 10SM OVC012 M04/M07 A2992 RMK AO2 SLP155 T10441072 $
Loading
Personal Weather Stations






























Interactive Weather Map New forecast layout! Learn more

10-Day Weather Forecast

Advertisements
Track Severe Weather on mobile